sensor_id;sensor_type;location;lat;lon;timestamp;P1;durP1;ratioP1;P2;durP2;ratioP2
42600;SDS011;28229;48.856;9.088;2022-12-17T00:01:53;22.37;;;13.00;;
42600;SDS011;28229;48.856;9.088;2022-12-17T00:04:38;20.07;;;11.60;;
42600;SDS011;28229;48.856;9.088;2022-12-17T00:07:22;22.53;;;12.37;;
42600;SDS011;28229;48.856;9.088;2022-12-17T00:10:07;20.93;;;11.73;;
42600;SDS011;28229;48.856;9.088;2022-12-17T00:12:52;24.57;;;13.87;;
42600;SDS011;28229;48.856;9.088;2022-12-17T00:15:37;22.73;;;13.30;;
42600;SDS011;28229;48.856;9.088;2022-12-17T00:18:21;22.53;;;13.00;;
42600;SDS011;28229;48.856;9.088;2022-12-17T00:21:06;22.37;;;12.90;;
42600;SDS011;28229;48.856;9.088;2022-12-17T00:23:52;20.20;;;12.30;;
42600;SDS011;28229;48.856;9.088;2022-12-17T00:26:36;18.27;;;12.47;;
42600;SDS011;28229;48.856;9.088;2022-12-17T00:29:21;20.73;;;13.00;;
42600;SDS011;28229;48.856;9.088;2022-12-17T00:32:07;19.73;;;12.40;;
42600;SDS011;28229;48.856;9.088;2022-12-17T00:34:52;22.77;;;13.37;;
42600;SDS011;28229;48.856;9.088;2022-12-17T00:37:37;23.93;;;13.73;;
42600;SDS011;28229;48.856;9.088;2022-12-17T00:40:22;24.50;;;13.87;;
42600;SDS011;28229;48.856;9.088;2022-12-17T00:43:09;20.13;;;12.47;;
42600;SDS011;28229;48.856;9.088;2022-12-17T00:45:55;24.70;;;13.60;;
42600;SDS011;28229;48.856;9.088;2022-12-17T00:48:40;21.37;;;12.57;;
42600;SDS011;28229;48.856;9.088;2022-12-17T00:51:25;20.27;;;11.90;;
42600;SDS011;28229;48.856;9.088;2022-12-17T00:54:10;23.10;;;12.40;;
42600;SDS011;28229;48.856;9.088;2022-12-17T00:56:55;24.90;;;12.90;;
42600;SDS011;28229;48.856;9.088;2022-12-17T00:59:40;20.33;;;11.90;;
42600;SDS011;28229;48.856;9.088;2022-12-17T01:02:25;23.13;;;11.97;;
42600;SDS011;28229;48.856;9.088;2022-12-17T01:05:10;21.23;;;11.47;;
42600;SDS011;28229;48.856;9.088;2022-12-17T01:07:55;19.00;;;11.30;;
42600;SDS011;28229;48.856;9.088;2022-12-17T01:10:40;21.00;;;10.97;;
42600;SDS011;28229;48.856;9.088;2022-12-17T01:13:25;18.97;;;11.90;;
42600;SDS011;28229;48.856;9.088;2022-12-17T01:16:11;23.33;;;12.13;;
42600;SDS011;28229;48.856;9.088;2022-12-17T01:18:57;21.30;;;11.10;;
42600;SDS011;28229;48.856;9.088;2022-12-17T01:21:43;21.00;;;12.87;;
42600;SDS011;28229;48.856;9.088;2022-12-17T01:24:29;21.27;;;13.57;;
42600;SDS011;28229;48.856;9.088;2022-12-17T01:27:33;18.00;;;12.10;;
42600;SDS011;28229;48.856;9.088;2022-12-17T01:30:18;19.23;;;11.40;;
42600;SDS011;28229;48.856;9.088;2022-12-17T01:33:04;22.37;;;11.17;;
42600;SDS011;28229;48.856;9.088;2022-12-17T01:35:55;18.87;;;11.33;;
42600;SDS011;28229;48.856;9.088;2022-12-17T01:38:40;19.00;;;11.70;;
42600;SDS011;28229;48.856;9.088;2022-12-17T01:41:26;19.83;;;11.40;;
42600;SDS011;28229;48.856;9.088;2022-12-17T01:50:23;21.47;;;12.13;;
42600;SDS011;28229;48.856;9.088;2022-12-17T01:53:11;21.97;;;12.17;;
42600;SDS011;28229;48.856;9.088;2022-12-17T01:55:58;20.00;;;11.50;;
42600;SDS011;28229;48.856;9.088;2022-12-17T01:58:43;19.57;;;11.00;;
42600;SDS011;28229;48.856;9.088;2022-12-17T02:01:28;21.23;;;12.33;;
42600;SDS011;28229;48.856;9.088;2022-12-17T02:04:13;18.73;;;11.67;;
42600;SDS011;28229;48.856;9.088;2022-12-17T02:10:15;24.47;;;12.10;;
42600;SDS011;28229;48.856;9.088;2022-12-17T02:13:14;22.17;;;11.90;;
42600;SDS011;28229;48.856;9.088;2022-12-17T02:19:07;23.30;;;11.87;;
42600;SDS011;28229;48.856;9.088;2022-12-17T02:21:53;21.33;;;11.27;;
42600;SDS011;28229;48.856;9.088;2022-12-17T02:24:54;20.80;;;11.10;;
42600;SDS011;28229;48.856;9.088;2022-12-17T02:27:49;21.23;;;11.30;;
42600;SDS011;28229;48.856;9.088;2022-12-17T02:30:34;23.67;;;12.07;;
42600;SDS011;28229;48.856;9.088;2022-12-17T02:33:21;17.27;;;10.73;;
42600;SDS011;28229;48.856;9.088;2022-12-17T02:36:07;18.33;;;11.10;;
42600;SDS011;28229;48.856;9.088;2022-12-17T02:38:51;17.37;;;10.03;;
42600;SDS011;28229;48.856;9.088;2022-12-17T02:44:47;18.33;;;9.87;;
42600;SDS011;28229;48.856;9.088;2022-12-17T02:47:32;19.03;;;11.13;;
42600;SDS011;28229;48.856;9.088;2022-12-17T02:50:18;19.67;;;10.77;;
42600;SDS011;28229;48.856;9.088;2022-12-17T02:53:02;19.30;;;10.07;;
42600;SDS011;28229;48.856;9.088;2022-12-17T02:56:01;18.27;;;10.60;;
42600;SDS011;28229;48.856;9.088;2022-12-17T02:58:46;18.10;;;10.80;;
42600;SDS011;28229;48.856;9.088;2022-12-17T03:01:33;18.13;;;10.60;;
42600;SDS011;28229;48.856;9.088;2022-12-17T03:04:17;19.87;;;10.83;;
42600;SDS011;28229;48.856;9.088;2022-12-17T03:07:05;18.70;;;10.40;;
42600;SDS011;28229;48.856;9.088;2022-12-17T03:09:49;19.17;;;10.53;;
42600;SDS011;28229;48.856;9.088;2022-12-17T03:12:38;24.47;;;12.07;;
42600;SDS011;28229;48.856;9.088;2022-12-17T03:15:23;22.23;;;11.83;;
42600;SDS011;28229;48.856;9.088;2022-12-17T03:18:07;22.80;;;11.70;;
42600;SDS011;28229;48.856;9.088;2022-12-17T03:20:52;21.43;;;11.83;;
42600;SDS011;28229;48.856;9.088;2022-12-17T03:23:37;23.43;;;12.13;;
42600;SDS011;28229;48.856;9.088;2022-12-17T03:26:22;20.47;;;11.70;;
42600;SDS011;28229;48.856;9.088;2022-12-17T03:29:06;25.33;;;12.83;;
42600;SDS011;28229;48.856;9.088;2022-12-17T03:31:51;20.80;;;11.33;;
42600;SDS011;28229;48.856;9.088;2022-12-17T03:34:35;21.97;;;12.53;;
42600;SDS011;28229;48.856;9.088;2022-12-17T03:37:19;21.13;;;11.80;;
42600;SDS011;28229;48.856;9.088;2022-12-17T03:40:04;22.60;;;12.70;;
42600;SDS011;28229;48.856;9.088;2022-12-17T03:42:49;25.87;;;13.63;;
42600;SDS011;28229;48.856;9.088;2022-12-17T03:45:33;20.20;;;11.80;;
42600;SDS011;28229;48.856;9.088;2022-12-17T03:48:17;24.87;;;12.80;;
42600;SDS011;28229;48.856;9.088;2022-12-17T03:51:02;24.17;;;12.93;;
42600;SDS011;28229;48.856;9.088;2022-12-17T03:53:46;22.20;;;13.17;;
42600;SDS011;28229;48.856;9.088;2022-12-17T03:56:31;22.83;;;13.40;;
42600;SDS011;28229;48.856;9.088;2022-12-17T03:59:16;23.67;;;13.67;;
42600;SDS011;28229;48.856;9.088;2022-12-17T04:02:00;26.13;;;12.53;;
42600;SDS011;28229;48.856;9.088;2022-12-17T04:04:45;26.50;;;13.13;;
42600;SDS011;28229;48.856;9.088;2022-12-17T04:07:30;28.90;;;13.43;;
42600;SDS011;28229;48.856;9.088;2022-12-17T04:10:29;29.53;;;13.97;;
42600;SDS011;28229;48.856;9.088;2022-12-17T04:13:14;30.20;;;15.03;;
42600;SDS011;28229;48.856;9.088;2022-12-17T04:15:58;30.53;;;14.80;;
42600;SDS011;28229;48.856;9.088;2022-12-17T04:18:43;38.63;;;16.53;;
42600;SDS011;28229;48.856;9.088;2022-12-17T04:21:27;41.63;;;17.93;;
42600;SDS011;28229;48.856;9.088;2022-12-17T04:24:11;52.20;;;19.00;;
42600;SDS011;28229;48.856;9.088;2022-12-17T04:26:56;44.53;;;18.53;;
42600;SDS011;28229;48.856;9.088;2022-12-17T04:29:40;46.87;;;18.53;;
42600;SDS011;28229;48.856;9.088;2022-12-17T04:32:25;51.17;;;20.63;;
42600;SDS011;28229;48.856;9.088;2022-12-17T04:35:09;52.53;;;19.57;;
42600;SDS011;28229;48.856;9.088;2022-12-17T04:37:53;46.97;;;19.73;;
42600;SDS011;28229;48.856;9.088;2022-12-17T04:40:37;42.03;;;17.57;;
42600;SDS011;28229;48.856;9.088;2022-12-17T04:43:22;34.93;;;17.57;;
42600;SDS011;28229;48.856;9.088;2022-12-17T04:46:07;35.27;;;17.30;;
42600;SDS011;28229;48.856;9.088;2022-12-17T04:48:51;36.20;;;17.30;;
42600;SDS011;28229;48.856;9.088;2022-12-17T04:51:36;36.50;;;16.93;;
42600;SDS011;28229;48.856;9.088;2022-12-17T04:54:20;46.10;;;19.03;;
42600;SDS011;28229;48.856;9.088;2022-12-17T04:57:04;39.63;;;18.00;;
42600;SDS011;28229;48.856;9.088;2022-12-17T04:59:48;41.97;;;17.37;;
42600;SDS011;28229;48.856;9.088;2022-12-17T05:02:33;42.37;;;19.00;;
42600;SDS011;28229;48.856;9.088;2022-12-17T05:05:17;43.50;;;19.70;;
42600;SDS011;28229;48.856;9.088;2022-12-17T05:08:01;45.03;;;18.97;;
42600;SDS011;28229;48.856;9.088;2022-12-17T05:10:45;37.40;;;17.83;;
42600;SDS011;28229;48.856;9.088;2022-12-17T05:13:30;54.80;;;22.33;;
42600;SDS011;28229;48.856;9.088;2022-12-17T05:16:14;46.13;;;20.87;;
42600;SDS011;28229;48.856;9.088;2022-12-17T05:18:58;47.77;;;19.97;;
42600;SDS011;28229;48.856;9.088;2022-12-17T05:21:43;69.30;;;23.33;;
42600;SDS011;28229;48.856;9.088;2022-12-17T05:24:27;61.33;;;22.23;;
42600;SDS011;28229;48.856;9.088;2022-12-17T05:27:12;35.70;;;17.37;;
42600;SDS011;28229;48.856;9.088;2022-12-17T05:29:56;51.57;;;22.13;;
42600;SDS011;28229;48.856;9.088;2022-12-17T05:32:41;61.17;;;21.93;;
42600;SDS011;28229;48.856;9.088;2022-12-17T05:35:25;47.43;;;20.80;;
42600;SDS011;28229;48.856;9.088;2022-12-17T05:38:09;71.60;;;20.30;;
42600;SDS011;28229;48.856;9.088;2022-12-17T05:40:55;75.73;;;20.43;;
42600;SDS011;28229;48.856;9.088;2022-12-17T05:43:40;53.27;;;20.27;;
42600;SDS011;28229;48.856;9.088;2022-12-17T05:46:25;52.77;;;18.43;;
42600;SDS011;28229;48.856;9.088;2022-12-17T05:49:10;34.33;;;16.80;;
42600;SDS011;28229;48.856;9.088;2022-12-17T05:51:54;48.77;;;17.50;;
42600;SDS011;28229;48.856;9.088;2022-12-17T05:54:38;55.90;;;19.83;;
42600;SDS011;28229;48.856;9.088;2022-12-17T05:57:23;54.87;;;17.37;;
42600;SDS011;28229;48.856;9.088;2022-12-17T06:00:07;82.30;;;25.30;;
42600;SDS011;28229;48.856;9.088;2022-12-17T06:02:59;56.57;;;20.53;;
42600;SDS011;28229;48.856;9.088;2022-12-17T06:05:44;47.20;;;21.03;;
42600;SDS011;28229;48.856;9.088;2022-12-17T06:08:28;59.90;;;20.30;;
42600;SDS011;28229;48.856;9.088;2022-12-17T06:11:13;46.20;;;20.10;;
42600;SDS011;28229;48.856;9.088;2022-12-17T06:13:57;49.87;;;19.47;;
42600;SDS011;28229;48.856;9.088;2022-12-17T06:16:42;73.43;;;19.27;;
42600;SDS011;28229;48.856;9.088;2022-12-17T06:19:26;51.80;;;21.37;;
42600;SDS011;28229;48.856;9.088;2022-12-17T06:22:11;62.17;;;20.63;;
42600;SDS011;28229;48.856;9.088;2022-12-17T06:24:56;68.10;;;24.50;;
42600;SDS011;28229;48.856;9.088;2022-12-17T06:27:40;50.60;;;21.37;;
42600;SDS011;28229;48.856;9.088;2022-12-17T06:30:24;59.60;;;21.47;;
42600;SDS011;28229;48.856;9.088;2022-12-17T06:33:09;55.33;;;21.43;;
42600;SDS011;28229;48.856;9.088;2022-12-17T06:35:55;69.70;;;20.90;;
42600;SDS011;28229;48.856;9.088;2022-12-17T06:38:41;46.13;;;19.57;;
42600;SDS011;28229;48.856;9.088;2022-12-17T06:41:26;59.17;;;21.80;;
42600;SDS011;28229;48.856;9.088;2022-12-17T06:44:10;77.97;;;27.77;;
42600;SDS011;28229;48.856;9.088;2022-12-17T06:46:55;57.63;;;23.53;;
42600;SDS011;28229;48.856;9.088;2022-12-17T06:49:39;57.90;;;24.30;;
42600;SDS011;28229;48.856;9.088;2022-12-17T06:52:24;67.93;;;25.13;;
42600;SDS011;28229;48.856;9.088;2022-12-17T06:55:08;66.87;;;26.60;;
42600;SDS011;28229;48.856;9.088;2022-12-17T06:57:54;56.57;;;25.27;;
42600;SDS011;28229;48.856;9.088;2022-12-17T07:00:40;56.27;;;24.83;;
42600;SDS011;28229;48.856;9.088;2022-12-17T07:03:24;56.93;;;26.20;;
42600;SDS011;28229;48.856;9.088;2022-12-17T07:06:10;63.00;;;25.17;;
42600;SDS011;28229;48.856;9.088;2022-12-17T07:08:54;66.90;;;26.33;;
42600;SDS011;28229;48.856;9.088;2022-12-17T07:11:38;55.90;;;24.23;;
42600;SDS011;28229;48.856;9.088;2022-12-17T07:14:23;59.80;;;26.27;;
42600;SDS011;28229;48.856;9.088;2022-12-17T07:17:07;64.13;;;27.33;;
42600;SDS011;28229;48.856;9.088;2022-12-17T07:19:52;64.50;;;25.13;;
42600;SDS011;28229;48.856;9.088;2022-12-17T07:22:36;64.70;;;23.33;;
42600;SDS011;28229;48.856;9.088;2022-12-17T07:25:20;53.50;;;22.03;;
42600;SDS011;28229;48.856;9.088;2022-12-17T07:28:05;52.00;;;22.43;;
42600;SDS011;28229;48.856;9.088;2022-12-17T07:31:00;52.83;;;20.60;;
42600;SDS011;28229;48.856;9.088;2022-12-17T07:33:44;49.33;;;20.40;;
42600;SDS011;28229;48.856;9.088;2022-12-17T07:36:28;46.77;;;20.57;;
42600;SDS011;28229;48.856;9.088;2022-12-17T07:39:13;50.43;;;20.30;;
42600;SDS011;28229;48.856;9.088;2022-12-17T07:41:57;43.10;;;19.83;;
42600;SDS011;28229;48.856;9.088;2022-12-17T07:44:41;44.30;;;19.33;;
42600;SDS011;28229;48.856;9.088;2022-12-17T07:47:25;43.33;;;19.27;;
42600;SDS011;28229;48.856;9.088;2022-12-17T07:50:10;34.70;;;18.20;;
42600;SDS011;28229;48.856;9.088;2022-12-17T07:53:00;40.57;;;18.60;;
42600;SDS011;28229;48.856;9.088;2022-12-17T07:55:45;41.47;;;19.10;;
42600;SDS011;28229;48.856;9.088;2022-12-17T07:58:30;36.53;;;18.47;;
42600;SDS011;28229;48.856;9.088;2022-12-17T08:01:14;38.90;;;18.67;;
42600;SDS011;28229;48.856;9.088;2022-12-17T08:03:59;41.63;;;19.77;;
42600;SDS011;28229;48.856;9.088;2022-12-17T08:06:43;43.30;;;21.83;;
42600;SDS011;28229;48.856;9.088;2022-12-17T08:09:27;43.37;;;21.63;;
42600;SDS011;28229;48.856;9.088;2022-12-17T08:12:11;46.20;;;22.03;;
42600;SDS011;28229;48.856;9.088;2022-12-17T08:14:56;41.03;;;21.57;;
42600;SDS011;28229;48.856;9.088;2022-12-17T08:17:40;43.37;;;21.07;;
42600;SDS011;28229;48.856;9.088;2022-12-17T08:20:26;45.27;;;21.03;;
42600;SDS011;28229;48.856;9.088;2022-12-17T08:23:10;42.63;;;19.67;;
42600;SDS011;28229;48.856;9.088;2022-12-17T08:25:54;43.43;;;19.67;;
42600;SDS011;28229;48.856;9.088;2022-12-17T08:28:39;38.30;;;18.03;;
42600;SDS011;28229;48.856;9.088;2022-12-17T08:31:23;41.90;;;19.73;;
42600;SDS011;28229;48.856;9.088;2022-12-17T08:34:08;42.27;;;19.50;;
42600;SDS011;28229;48.856;9.088;2022-12-17T08:36:53;39.27;;;19.40;;
42600;SDS011;28229;48.856;9.088;2022-12-17T08:39:37;39.07;;;19.73;;
42600;SDS011;28229;48.856;9.088;2022-12-17T08:42:21;39.80;;;18.63;;
42600;SDS011;28229;48.856;9.088;2022-12-17T08:45:06;40.50;;;19.63;;
42600;SDS011;28229;48.856;9.088;2022-12-17T08:47:51;37.20;;;18.37;;
42600;SDS011;28229;48.856;9.088;2022-12-17T08:50:35;37.23;;;17.77;;
42600;SDS011;28229;48.856;9.088;2022-12-17T08:53:19;35.93;;;17.50;;
42600;SDS011;28229;48.856;9.088;2022-12-17T08:56:04;40.53;;;18.60;;
42600;SDS011;28229;48.856;9.088;2022-12-17T08:58:48;44.23;;;19.40;;
42600;SDS011;28229;48.856;9.088;2022-12-17T09:01:34;38.63;;;18.77;;
42600;SDS011;28229;48.856;9.088;2022-12-17T09:04:19;38.50;;;18.73;;
42600;SDS011;28229;48.856;9.088;2022-12-17T09:07:03;36.80;;;18.33;;
42600;SDS011;28229;48.856;9.088;2022-12-17T09:09:47;40.67;;;19.10;;
42600;SDS011;28229;48.856;9.088;2022-12-17T09:12:32;41.37;;;18.87;;
42600;SDS011;28229;48.856;9.088;2022-12-17T09:15:17;36.70;;;18.43;;
42600;SDS011;28229;48.856;9.088;2022-12-17T09:18:01;38.93;;;18.20;;
42600;SDS011;28229;48.856;9.088;2022-12-17T09:20:52;37.53;;;18.80;;
42600;SDS011;28229;48.856;9.088;2022-12-17T09:23:38;36.00;;;18.73;;
42600;SDS011;28229;48.856;9.088;2022-12-17T09:26:22;38.43;;;19.07;;
42600;SDS011;28229;48.856;9.088;2022-12-17T09:29:07;46.83;;;20.03;;
42600;SDS011;28229;48.856;9.088;2022-12-17T09:31:52;42.83;;;19.93;;
42600;SDS011;28229;48.856;9.088;2022-12-17T09:34:36;35.90;;;17.97;;
42600;SDS011;28229;48.856;9.088;2022-12-17T09:37:20;40.83;;;19.63;;
42600;SDS011;28229;48.856;9.088;2022-12-17T09:40:05;38.03;;;17.93;;
42600;SDS011;28229;48.856;9.088;2022-12-17T09:42:55;43.07;;;21.57;;
42600;SDS011;28229;48.856;9.088;2022-12-17T09:45:49;38.53;;;19.47;;
42600;SDS011;28229;48.856;9.088;2022-12-17T09:49:00;41.07;;;20.47;;
42600;SDS011;28229;48.856;9.088;2022-12-17T09:51:54;42.00;;;19.90;;
42600;SDS011;28229;48.856;9.088;2022-12-17T09:54:39;36.23;;;19.13;;
42600;SDS011;28229;48.856;9.088;2022-12-17T09:57:29;40.97;;;21.27;;
42600;SDS011;28229;48.856;9.088;2022-12-17T10:00:24;45.27;;;21.70;;
42600;SDS011;28229;48.856;9.088;2022-12-17T10:03:13;45.13;;;22.67;;
42600;SDS011;28229;48.856;9.088;2022-12-17T10:06:05;52.70;;;23.77;;
42600;SDS011;28229;48.856;9.088;2022-12-17T10:08:58;49.50;;;22.90;;
42600;SDS011;28229;48.856;9.088;2022-12-17T10:11:46;45.47;;;22.43;;
42600;SDS011;28229;48.856;9.088;2022-12-17T10:14:30;43.80;;;19.90;;
42600;SDS011;28229;48.856;9.088;2022-12-17T10:17:16;50.97;;;25.23;;
42600;SDS011;28229;48.856;9.088;2022-12-17T10:20:09;46.07;;;23.67;;
42600;SDS011;28229;48.856;9.088;2022-12-17T10:23:30;49.50;;;25.27;;
42600;SDS011;28229;48.856;9.088;2022-12-17T10:26:18;50.73;;;25.07;;
42600;SDS011;28229;48.856;9.088;2022-12-17T10:29:11;41.37;;;21.77;;
42600;SDS011;28229;48.856;9.088;2022-12-17T10:31:59;44.00;;;22.83;;
42600;SDS011;28229;48.856;9.088;2022-12-17T10:34:53;45.20;;;22.10;;
42600;SDS011;28229;48.856;9.088;2022-12-17T10:37:40;42.23;;;21.33;;
42600;SDS011;28229;48.856;9.088;2022-12-17T10:40:25;47.03;;;21.53;;
42600;SDS011;28229;48.856;9.088;2022-12-17T10:46:08;46.47;;;24.20;;
42600;SDS011;28229;48.856;9.088;2022-12-17T10:49:03;42.37;;;23.00;;
42600;SDS011;28229;48.856;9.088;2022-12-17T10:51:59;45.87;;;22.57;;
42600;SDS011;28229;48.856;9.088;2022-12-17T10:55:00;43.13;;;21.37;;
42600;SDS011;28229;48.856;9.088;2022-12-17T10:57:46;43.17;;;22.63;;
42600;SDS011;28229;48.856;9.088;2022-12-17T11:00:34;44.57;;;22.53;;
42600;SDS011;28229;48.856;9.088;2022-12-17T11:06:39;51.20;;;24.23;;
42600;SDS011;28229;48.856;9.088;2022-12-17T11:12:12;41.00;;;21.57;;
42600;SDS011;28229;48.856;9.088;2022-12-17T11:15:02;44.40;;;23.87;;
42600;SDS011;28229;48.856;9.088;2022-12-17T11:17:54;43.37;;;22.07;;
42600;SDS011;28229;48.856;9.088;2022-12-17T11:20:42;43.27;;;22.33;;
42600;SDS011;28229;48.856;9.088;2022-12-17T11:23:30;40.87;;;22.47;;
42600;SDS011;28229;48.856;9.088;2022-12-17T11:26:17;43.67;;;22.20;;
42600;SDS011;28229;48.856;9.088;2022-12-17T11:29:03;44.60;;;24.20;;
42600;SDS011;28229;48.856;9.088;2022-12-17T11:31:54;42.00;;;21.97;;
42600;SDS011;28229;48.856;9.088;2022-12-17T11:40:52;40.47;;;21.70;;
42600;SDS011;28229;48.856;9.088;2022-12-17T11:43:44;38.00;;;21.60;;
42600;SDS011;28229;48.856;9.088;2022-12-17T11:47:00;38.20;;;20.90;;
42600;SDS011;28229;48.856;9.088;2022-12-17T11:50:24;37.03;;;20.70;;
42600;SDS011;28229;48.856;9.088;2022-12-17T11:56:26;36.50;;;21.83;;
42600;SDS011;28229;48.856;9.088;2022-12-17T12:02:32;37.10;;;21.37;;
42600;SDS011;28229;48.856;9.088;2022-12-17T12:11:46;32.73;;;20.30;;
42600;SDS011;28229;48.856;9.088;2022-12-17T12:14:53;36.03;;;22.10;;
42600;SDS011;28229;48.856;9.088;2022-12-17T12:17:45;39.60;;;22.77;;
42600;SDS011;28229;48.856;9.088;2022-12-17T12:26:43;36.57;;;21.70;;
42600;SDS011;28229;48.856;9.088;2022-12-17T12:30:03;37.47;;;22.90;;
42600;SDS011;28229;48.856;9.088;2022-12-17T12:33:00;34.37;;;22.50;;
42600;SDS011;28229;48.856;9.088;2022-12-17T12:36:02;38.27;;;21.57;;
42600;SDS011;28229;48.856;9.088;2022-12-17T12:38:52;41.37;;;25.63;;
42600;SDS011;28229;48.856;9.088;2022-12-17T12:44:49;36.37;;;21.53;;
42600;SDS011;28229;48.856;9.088;2022-12-17T12:47:58;38.97;;;23.87;;
42600;SDS011;28229;48.856;9.088;2022-12-17T12:53:59;37.70;;;21.83;;
42600;SDS011;28229;48.856;9.088;2022-12-17T12:56:45;34.83;;;21.33;;
42600;SDS011;28229;48.856;9.088;2022-12-17T12:59:31;38.97;;;23.77;;
42600;SDS011;28229;48.856;9.088;2022-12-17T13:05:15;37.03;;;22.37;;
42600;SDS011;28229;48.856;9.088;2022-12-17T13:08:00;35.13;;;21.63;;
42600;SDS011;28229;48.856;9.088;2022-12-17T13:10:33;35.93;;;22.80;;
42600;SDS011;28229;48.856;9.088;2022-12-17T13:13:09;41.10;;;22.80;;
42600;SDS011;28229;48.856;9.088;2022-12-17T13:15:42;35.23;;;22.47;;
42600;SDS011;28229;48.856;9.088;2022-12-17T13:21:05;39.57;;;25.03;;
42600;SDS011;28229;48.856;9.088;2022-12-17T13:23:49;43.83;;;26.50;;
42600;SDS011;28229;48.856;9.088;2022-12-17T13:26:29;52.20;;;29.00;;
42600;SDS011;28229;48.856;9.088;2022-12-17T13:37:30;53.90;;;27.53;;
42600;SDS011;28229;48.856;9.088;2022-12-17T13:42:52;44.33;;;26.33;;
42600;SDS011;28229;48.856;9.088;2022-12-17T13:45:21;47.13;;;27.10;;
42600;SDS011;28229;48.856;9.088;2022-12-17T13:47:52;53.50;;;30.20;;
42600;SDS011;28229;48.856;9.088;2022-12-17T13:50:27;56.63;;;32.63;;
42600;SDS011;28229;48.856;9.088;2022-12-17T13:52:54;52.47;;;30.10;;
42600;SDS011;28229;48.856;9.088;2022-12-17T13:55:23;58.07;;;32.77;;
42600;SDS011;28229;48.856;9.088;2022-12-17T13:57:51;49.37;;;27.60;;
42600;SDS011;28229;48.856;9.088;2022-12-17T14:00:25;47.27;;;27.47;;
42600;SDS011;28229;48.856;9.088;2022-12-17T14:02:53;44.40;;;25.90;;
42600;SDS011;28229;48.856;9.088;2022-12-17T14:07:56;42.13;;;24.47;;
42600;SDS011;28229;48.856;9.088;2022-12-17T14:10:24;42.90;;;24.43;;
42600;SDS011;28229;48.856;9.088;2022-12-17T14:12:51;43.00;;;26.00;;
42600;SDS011;28229;48.856;9.088;2022-12-17T14:15:24;46.53;;;27.63;;
42600;SDS011;28229;48.856;9.088;2022-12-17T14:17:53;50.13;;;29.87;;
42600;SDS011;28229;48.856;9.088;2022-12-17T14:20:20;52.40;;;30.20;;
42600;SDS011;28229;48.856;9.088;2022-12-17T14:22:50;59.63;;;34.13;;
42600;SDS011;28229;48.856;9.088;2022-12-17T14:25:23;57.73;;;33.73;;
42600;SDS011;28229;48.856;9.088;2022-12-17T14:27:57;56.03;;;33.10;;
42600;SDS011;28229;48.856;9.088;2022-12-17T14:30:38;52.97;;;30.57;;
42600;SDS011;28229;48.856;9.088;2022-12-17T14:33:26;45.43;;;28.53;;
42600;SDS011;28229;48.856;9.088;2022-12-17T14:35:57;48.67;;;29.53;;
42600;SDS011;28229;48.856;9.088;2022-12-17T14:38:25;55.70;;;28.97;;
42600;SDS011;28229;48.856;9.088;2022-12-17T14:40:51;53.87;;;31.00;;
42600;SDS011;28229;48.856;9.088;2022-12-17T14:43:25;59.33;;;33.27;;
42600;SDS011;28229;48.856;9.088;2022-12-17T14:45:57;48.47;;;27.77;;
42600;SDS011;28229;48.856;9.088;2022-12-17T14:48:45;48.03;;;27.43;;
42600;SDS011;28229;48.856;9.088;2022-12-17T14:51:33;53.53;;;30.67;;
42600;SDS011;28229;48.856;9.088;2022-12-17T14:56:39;67.60;;;35.93;;
42600;SDS011;28229;48.856;9.088;2022-12-17T14:59:21;76.40;;;39.43;;
42600;SDS011;28229;48.856;9.088;2022-12-17T15:01:51;62.97;;;36.83;;
42600;SDS011;28229;48.856;9.088;2022-12-17T15:04:18;64.67;;;38.37;;
42600;SDS011;28229;48.856;9.088;2022-12-17T15:06:44;66.90;;;38.20;;
42600;SDS011;28229;48.856;9.088;2022-12-17T15:09:10;61.93;;;36.40;;
42600;SDS011;28229;48.856;9.088;2022-12-17T15:11:38;56.60;;;33.43;;
42600;SDS011;28229;48.856;9.088;2022-12-17T15:14:04;59.33;;;33.77;;
42600;SDS011;28229;48.856;9.088;2022-12-17T15:16:30;54.27;;;31.30;;
42600;SDS011;28229;48.856;9.088;2022-12-17T15:18:56;46.73;;;26.93;;
42600;SDS011;28229;48.856;9.088;2022-12-17T15:21:22;47.33;;;26.77;;
42600;SDS011;28229;48.856;9.088;2022-12-17T15:23:50;48.97;;;27.70;;
42600;SDS011;28229;48.856;9.088;2022-12-17T15:26:16;53.77;;;27.17;;
42600;SDS011;28229;48.856;9.088;2022-12-17T15:28:42;49.67;;;27.33;;
42600;SDS011;28229;48.856;9.088;2022-12-17T15:31:09;50.50;;;28.57;;
42600;SDS011;28229;48.856;9.088;2022-12-17T15:33:37;51.23;;;27.63;;
42600;SDS011;28229;48.856;9.088;2022-12-17T15:36:03;52.00;;;29.30;;
42600;SDS011;28229;48.856;9.088;2022-12-17T15:38:29;56.37;;;30.17;;
42600;SDS011;28229;48.856;9.088;2022-12-17T15:40:58;55.90;;;30.20;;
42600;SDS011;28229;48.856;9.088;2022-12-17T15:43:24;52.80;;;29.70;;
42600;SDS011;28229;48.856;9.088;2022-12-17T15:45:50;53.97;;;29.70;;
42600;SDS011;28229;48.856;9.088;2022-12-17T15:48:17;55.57;;;29.30;;
42600;SDS011;28229;48.856;9.088;2022-12-17T15:50:45;48.83;;;26.57;;
42600;SDS011;28229;48.856;9.088;2022-12-17T15:53:11;49.93;;;27.30;;
42600;SDS011;28229;48.856;9.088;2022-12-17T15:55:37;51.53;;;28.10;;
42600;SDS011;28229;48.856;9.088;2022-12-17T15:58:05;46.87;;;24.93;;
42600;SDS011;28229;48.856;9.088;2022-12-17T16:00:31;48.43;;;25.87;;
42600;SDS011;28229;48.856;9.088;2022-12-17T16:02:57;49.90;;;26.30;;
42600;SDS011;28229;48.856;9.088;2022-12-17T16:05:23;48.00;;;26.13;;
42600;SDS011;28229;48.856;9.088;2022-12-17T16:07:49;49.43;;;25.80;;
42600;SDS011;28229;48.856;9.088;2022-12-17T16:10:16;53.40;;;26.87;;
42600;SDS011;28229;48.856;9.088;2022-12-17T16:12:42;54.07;;;29.03;;
42600;SDS011;28229;48.856;9.088;2022-12-17T16:15:09;54.27;;;28.43;;
42600;SDS011;28229;48.856;9.088;2022-12-17T16:17:35;81.00;;;35.37;;
42600;SDS011;28229;48.856;9.088;2022-12-17T16:20:01;132.50;;;49.27;;
42600;SDS011;28229;48.856;9.088;2022-12-17T16:22:28;160.60;;;53.10;;
42600;SDS011;28229;48.856;9.088;2022-12-17T16:24:54;71.43;;;33.17;;
42600;SDS011;28229;48.856;9.088;2022-12-17T16:27:20;57.53;;;30.00;;
42600;SDS011;28229;48.856;9.088;2022-12-17T16:29:46;53.90;;;27.57;;
42600;SDS011;28229;48.856;9.088;2022-12-17T16:32:13;60.33;;;28.47;;
42600;SDS011;28229;48.856;9.088;2022-12-17T16:34:40;78.83;;;39.27;;
42600;SDS011;28229;48.856;9.088;2022-12-17T16:37:06;75.77;;;37.97;;
42600;SDS011;28229;48.856;9.088;2022-12-17T16:39:32;86.17;;;41.57;;
42600;SDS011;28229;48.856;9.088;2022-12-17T16:41:58;85.37;;;39.77;;
42600;SDS011;28229;48.856;9.088;2022-12-17T16:44:24;69.83;;;35.33;;
42600;SDS011;28229;48.856;9.088;2022-12-17T16:46:50;66.83;;;34.17;;
42600;SDS011;28229;48.856;9.088;2022-12-17T16:49:18;66.40;;;32.50;;
42600;SDS011;28229;48.856;9.088;2022-12-17T16:51:45;69.73;;;34.00;;
42600;SDS011;28229;48.856;9.088;2022-12-17T16:54:18;70.13;;;32.43;;
42600;SDS011;28229;48.856;9.088;2022-12-17T16:56:45;60.27;;;31.47;;
42600;SDS011;28229;48.856;9.088;2022-12-17T16:59:12;67.60;;;32.00;;
42600;SDS011;28229;48.856;9.088;2022-12-17T17:01:40;69.57;;;32.90;;
42600;SDS011;28229;48.856;9.088;2022-12-17T17:04:09;64.33;;;31.97;;
42600;SDS011;28229;48.856;9.088;2022-12-17T17:06:39;68.07;;;32.27;;
42600;SDS011;28229;48.856;9.088;2022-12-17T17:09:06;69.10;;;32.63;;